createdAt,value
2024-01-31T00:03:25.495Z,99613.97
2024-01-31T00:08:27.297Z,99618.56
2024-01-31T00:13:29.417Z,99609.19
2024-01-31T00:18:31.436Z,99621.28
2024-01-31T00:23:33.400Z,99611.50
2024-01-31T00:28:35.437Z,99608.25
2024-01-31T00:33:37.363Z,99609.59
2024-01-31T00:38:39.194Z,99616.81
2024-01-31T00:43:41.273Z,99624.72
2024-01-31T00:48:44.379Z,99624.66
2024-01-31T00:53:46.303Z,99631.59
2024-01-31T00:58:48.582Z,99625.16
2024-01-31T01:03:50.544Z,99627.09
2024-01-31T01:08:52.686Z,99619.81
2024-01-31T01:13:54.510Z,99627.53
2024-01-31T01:18:56.374Z,99623.75
2024-01-31T01:23:58.209Z,99637.78
2024-01-31T01:29:00.331Z,99631.59
2024-01-31T01:34:02.313Z,99633.47
2024-01-31T01:39:05.067Z,99632.53
2024-01-31T01:44:06.887Z,99638.56
2024-01-31T01:49:09.110Z,99635.34
2024-01-31T01:54:13.846Z,99635.84
2024-01-31T01:59:17.106Z,99630.97
2024-01-31T02:04:22.001Z,99630.97
2024-01-31T02:09:24.684Z,99640.75
2024-01-31T02:14:26.570Z,99640.66
2024-01-31T02:19:28.467Z,99635.19
2024-01-31T02:24:30.593Z,99641.84
2024-01-31T02:29:32.478Z,99645.44
2024-01-31T02:34:34.943Z,99638.19
2024-01-31T02:39:36.901Z,99647.63
2024-01-31T02:44:38.748Z,99647.25
2024-01-31T02:49:40.690Z,99650.47
2024-01-31T02:54:42.712Z,99647.69
2024-01-31T02:59:44.530Z,99645.78
2024-01-31T03:04:46.479Z,99652.50
2024-01-31T03:09:48.484Z,99651.38
2024-01-31T03:14:50.310Z,99653.28
2024-01-31T03:19:52.280Z,99648.97
2024-01-31T03:24:54.178Z,99652.19
2024-01-31T03:29:57.812Z,99653.16
2024-01-31T03:35:00.432Z,99660.31
2024-01-31T03:40:02.445Z,99660.50
2024-01-31T03:45:05.802Z,99659.72
2024-01-31T03:50:08.165Z,99657.31
2024-01-31T03:55:11.607Z,99662.75
2024-01-31T04:00:14.069Z,99666.72
2024-01-31T04:05:17.795Z,99672.16
2024-01-31T04:10:19.826Z,99675.16
2024-01-31T04:15:21.758Z,99677.41
2024-01-31T04:20:23.632Z,99675.63
2024-01-31T04:25:25.578Z,99676.44
2024-01-31T04:30:30.060Z,99668.91
2024-01-31T04:35:32.648Z,99684.69
2024-01-31T04:40:34.573Z,99679.28
2024-01-31T04:45:36.514Z,99683.09
2024-01-31T04:50:38.475Z,99693.94
2024-01-31T04:55:40.568Z,99701.56
2024-01-31T05:00:42.630Z,99704.91
2024-01-31T05:05:44.667Z,99708.25
2024-01-31T05:10:47.194Z,99699.44
2024-01-31T05:15:49.035Z,99703.09
2024-01-31T05:20:50.867Z,99708.16
2024-01-31T05:25:52.812Z,99712.44
2024-01-31T05:30:54.874Z,99711.63
2024-01-31T05:35:59.138Z,99716.25
2024-01-31T05:41:01.437Z,99710.59
2024-01-31T05:46:03.309Z,99710.84
2024-01-31T05:51:05.315Z,99706.38
2024-01-31T05:56:07.862Z,99712.25
2024-01-31T06:01:09.759Z,99724.16
2024-01-31T06:06:11.736Z,99722.22
2024-01-31T06:11:13.605Z,99717.16
2024-01-31T06:16:16.320Z,99709.28
2024-01-31T06:21:18.189Z,99717.38
2024-01-31T06:26:20.037Z,99711.72
2024-01-31T06:31:30.141Z,99713.56
2024-01-31T06:36:32.103Z,99725.47
2024-01-31T06:41:36.341Z,99721.97
2024-01-31T06:46:38.704Z,99722.38
2024-01-31T06:51:40.686Z,99726.88
2024-01-31T06:56:42.521Z,99731.81
2024-01-31T07:01:44.522Z,99731.31
2024-01-31T07:06:46.450Z,99744.03
2024-01-31T07:11:48.559Z,99752.44
2024-01-31T07:16:50.390Z,99753.84
2024-01-31T07:21:52.268Z,99753.56
2024-01-31T07:26:54.232Z,99758.44
2024-01-31T07:31:56.173Z,99766.06
2024-01-31T07:36:58.075Z,99775.69
2024-01-31T07:41:59.901Z,99774.25
2024-01-31T07:47:04.586Z,99778.78
2024-01-31T07:52:06.504Z,99778.47
2024-01-31T07:57:08.337Z,99775.88
2024-01-31T08:02:10.286Z,99787.56
2024-01-31T08:07:13.923Z,99782.06
2024-01-31T08:12:15.898Z,99791.53
2024-01-31T08:17:17.964Z,99780.81
2024-01-31T08:22:19.935Z,99780.81
2024-01-31T08:27:21.852Z,99789.22
2024-01-31T08:32:24.171Z,99776.69
2024-01-31T08:37:26.006Z,99777.00
2024-01-31T08:42:30.243Z,99784.88
2024-01-31T08:47:32.283Z,99788.75
2024-01-31T08:52:35.676Z,99790.00
2024-01-31T08:57:37.713Z,99794.78
2024-01-31T09:02:39.571Z,99807.00
2024-01-31T09:07:41.526Z,99798.97
2024-01-31T09:12:43.739Z,99807.59
2024-01-31T09:17:47.553Z,99804.41
2024-01-31T09:22:49.449Z,99802.44
2024-01-31T09:27:51.453Z,99812.00
2024-01-31T09:32:53.320Z,99809.81
2024-01-31T09:37:55.390Z,99825.06
2024-01-31T09:42:57.320Z,99829.06
2024-01-31T09:48:00.595Z,99813.09
2024-01-31T09:53:03.159Z,99816.19
2024-01-31T09:58:05.210Z,99819.44
2024-01-31T10:03:07.219Z,99825.66
2024-01-31T10:08:09.279Z,99817.22
2024-01-31T10:13:11.189Z,99816.22
2024-01-31T10:18:14.043Z,99802.56
2024-01-31T10:23:16.361Z,99811.66
2024-01-31T10:28:21.316Z,99799.97
2024-01-31T10:33:25.237Z,99788.94
2024-01-31T10:38:27.606Z,99788.59
2024-01-31T10:43:30.537Z,99780.34
2024-01-31T10:48:32.573Z,99781.13
2024-01-31T10:53:36.055Z,99785.56
2024-01-31T10:58:38.254Z,99782.47
2024-01-31T11:03:46.336Z,99774.97
2024-01-31T11:08:48.980Z,99767.94
2024-01-31T11:13:57.518Z,99765.75
2024-01-31T11:19:00.362Z,99760.34
2024-01-31T11:24:02.491Z,99752.94
2024-01-31T11:29:04.696Z,99766.16
2024-01-31T11:34:07.086Z,99751.94
2024-01-31T11:39:09.289Z,99751.56
2024-01-31T11:44:11.290Z,99742.94
2024-01-31T11:49:16.038Z,99744.75
2024-01-31T11:54:18.130Z,99745.94
2024-01-31T11:59:20.175Z,99755.66
2024-01-31T12:04:25.795Z,99760.19
2024-01-31T12:09:28.052Z,99743.34
2024-01-31T12:14:30.602Z,99733.00
2024-01-31T12:19:32.552Z,99732.59
2024-01-31T12:24:34.490Z,99740.88
2024-01-31T12:29:40.333Z,99749.53
2024-01-31T12:34:42.614Z,99738.56
2024-01-31T12:39:44.930Z,99746.53
2024-01-31T12:44:47.283Z,99736.31
2024-01-31T12:49:49.219Z,99716.91
2024-01-31T12:54:53.260Z,99713.47
2024-01-31T12:59:55.134Z,99709.81
2024-01-31T13:04:57.452Z,99704.38
2024-01-31T13:09:59.812Z,99714.31
2024-01-31T13:15:02.018Z,99707.09
2024-01-31T13:20:04.466Z,99690.56
2024-01-31T13:25:07.139Z,99679.84
2024-01-31T13:30:13.035Z,99668.09
2024-01-31T13:35:15.288Z,99670.53
2024-01-31T13:40:17.211Z,99660.63
2024-01-31T13:45:20.318Z,99634.91
2024-01-31T13:50:22.234Z,99651.69
2024-01-31T13:55:24.069Z,99637.06
2024-01-31T14:00:25.935Z,99639.88
2024-01-31T14:05:27.861Z,99630.84
2024-01-31T14:10:29.736Z,99617.31
2024-01-31T14:15:31.712Z,99622.06
2024-01-31T14:20:38.371Z,99638.69
2024-01-31T14:25:40.750Z,99625.91
2024-01-31T14:30:42.554Z,99619.38
2024-01-31T14:35:44.769Z,99630.44
2024-01-31T14:40:46.678Z,99623.91
2024-01-31T14:45:48.698Z,99615.31
2024-01-31T14:50:50.677Z,99618.94
2024-01-31T14:55:53.267Z,99613.72
2024-01-31T15:00:55.392Z,99598.28
2024-01-31T15:05:57.951Z,99603.69
2024-01-31T15:11:00.086Z,99612.09
2024-01-31T15:16:05.245Z,99612.38
2024-01-31T15:21:07.400Z,99604.63
2024-01-31T15:26:10.239Z,99615.44
2024-01-31T15:31:12.946Z,99601.91
2024-01-31T15:36:15.820Z,99598.81
2024-01-31T15:41:18.394Z,99601.84
2024-01-31T15:46:21.207Z,99599.81
2024-01-31T15:51:26.332Z,99592.50
2024-01-31T15:56:28.286Z,99591.44
2024-01-31T16:01:32.656Z,99570.94
2024-01-31T16:06:39.922Z,99566.66
2024-01-31T16:11:42.960Z,99555.44
2024-01-31T16:16:45.076Z,99557.53
2024-01-31T16:21:49.919Z,99553.41
2024-01-31T16:26:52.079Z,99555.13
2024-01-31T16:31:54.038Z,99547.44
2024-01-31T16:36:55.958Z,99541.06
2024-01-31T16:41:57.889Z,99518.34
2024-01-31T16:46:59.700Z,99542.03
2024-01-31T16:52:01.537Z,99526.50
2024-01-31T16:57:05.572Z,99543.91
2024-01-31T17:02:07.590Z,99543.41
2024-01-31T17:07:10.497Z,99531.63
2024-01-31T17:12:12.403Z,99506.28
2024-01-31T17:17:14.467Z,99499.66
2024-01-31T17:22:16.350Z,99502.75
2024-01-31T17:27:18.301Z,99496.22
2024-01-31T17:32:20.138Z,99500.91
2024-01-31T17:37:22.018Z,99483.06
2024-01-31T17:42:23.998Z,99464.78
2024-01-31T17:47:25.927Z,99459.66
2024-01-31T17:52:27.824Z,99449.81
2024-01-31T17:57:29.645Z,99449.81
2024-01-31T18:02:32.978Z,99436.72
2024-01-31T18:07:34.849Z,99441.75
2024-01-31T18:12:36.912Z,99444.13
2024-01-31T18:17:38.843Z,99443.03
2024-01-31T18:22:40.772Z,99442.72
2024-01-31T18:27:42.840Z,99434.44
2024-01-31T18:32:44.790Z,99434.56
2024-01-31T18:37:46.674Z,99432.13
2024-01-31T18:42:48.521Z,99431.88
2024-01-31T18:47:50.816Z,99410.13
2024-01-31T18:52:52.771Z,99408.94
2024-01-31T18:57:54.903Z,99398.56
2024-01-31T19:02:57.971Z,99388.28
2024-01-31T19:07:59.957Z,99378.97
2024-01-31T19:13:02.756Z,99369.88
2024-01-31T19:18:11.582Z,99357.78
2024-01-31T19:23:14.685Z,99353.91
2024-01-31T19:28:16.525Z,99351.13
2024-01-31T19:33:18.686Z,99347.84
2024-01-31T19:38:21.973Z,99323.28
2024-01-31T19:43:24.014Z,99322.16
2024-01-31T19:48:26.629Z,99315.97
2024-01-31T19:53:30.581Z,99325.91
2024-01-31T19:58:33.209Z,99307.75
2024-01-31T20:03:38.489Z,99298.06
2024-01-31T20:08:40.640Z,99286.28
2024-01-31T20:13:42.928Z,99278.31
2024-01-31T20:18:46.577Z,99268.94
2024-01-31T20:23:49.948Z,99277.31
2024-01-31T20:28:53.788Z,99271.91
2024-01-31T20:33:57.101Z,99272.16
2024-01-31T20:38:59.059Z,99277.50
2024-01-31T20:44:01.557Z,99269.13
2024-01-31T20:49:04.004Z,99265.59
2024-01-31T20:54:06.149Z,99245.72
2024-01-31T20:59:08.173Z,99217.63
2024-01-31T21:04:10.164Z,99185.56
2024-01-31T21:09:12.159Z,99171.19
2024-01-31T21:14:15.340Z,99157.84
2024-01-31T21:19:17.618Z,99142.78
2024-01-31T21:24:19.870Z,99125.13
2024-01-31T21:29:21.795Z,99123.84
2024-01-31T21:34:23.630Z,99119.16
2024-01-31T21:39:25.639Z,99117.97
2024-01-31T21:44:27.941Z,99084.88
2024-01-31T21:49:29.770Z,99081.91
2024-01-31T21:54:31.644Z,99072.00
2024-01-31T21:59:33.525Z,99067.56
2024-01-31T22:04:35.595Z,99068.72
2024-01-31T22:09:37.549Z,99058.06
2024-01-31T22:14:42.294Z,99043.38
2024-01-31T22:19:44.375Z,99033.81
2024-01-31T22:24:46.314Z,99038.97
2024-01-31T22:29:48.373Z,99036.53
2024-01-31T22:34:50.329Z,99014.88
2024-01-31T22:39:52.221Z,99009.97
2024-01-31T22:44:54.093Z,99009.16
2024-01-31T22:49:55.986Z,99003.91
2024-01-31T22:55:01.447Z,98996.19
2024-01-31T23:00:07.809Z,98972.31
2024-01-31T23:05:09.785Z,98960.56
2024-01-31T23:10:11.667Z,98969.44
2024-01-31T23:15:13.971Z,98956.81
2024-01-31T23:20:16.150Z,98953.13
2024-01-31T23:25:17.963Z,98931.88
2024-01-31T23:30:19.907Z,98948.13
2024-01-31T23:35:22.037Z,98953.13
2024-01-31T23:40:23.963Z,98967.56
2024-01-31T23:45:25.862Z,98980.63
2024-01-31T23:50:27.827Z,98968.31
2024-01-31T23:55:29.683Z,98972.00
